This is the latest recevied weather packets stored in our database for station/object SP6PGH-13. If no packets are shown the sender has not sent any weather packets the latest 10 day(s).
| Time | Temp. | Humidity | Pressure | Rain* | Wind** | Luminosity | Snow |
|---|---|---|---|---|---|---|---|
| 1777233037 | 4.44° C | 60% | 1010 hPa | - | - | - | - |
| 1777232136 | 5° C | 58% | 1009.9 hPa | - | - | - | - |
| 1777231235 | 6.11° C | 54% | 1010 hPa | - | - | - | - |
| 1777230333 | 6.11° C | 49% | 1009.9 hPa | - | - | - | - |
| 1777229432 | 7.22° C | 45% | 1009.7 hPa | - | - | - | - |
| 1777228531 | 7.78° C | 43% | 1009.7 hPa | - | - | - | - |
| 1777227630 | 8.89° C | 41% | 1009.7 hPa | - | - | - | - |
| 1777226729 | 9.44° C | 40% | 1009.3 hPa | - | - | 2 W/m² | - |
| 1777225828 | 11.11° C | 36% | 1009.2 hPa | - | - | 8 W/m² | - |
| 1777224927 | 12.78° C | 31% | 1009.1 hPa | - | - | 20 W/m² | - |
| 1777224026 | 12.78° C | 29% | 1009 hPa | - | - | 32 W/m² | - |
| 1777223125 | 13.33° C | 27% | 1008.9 hPa | - | - | 40 W/m² | - |
| 1777222224 | 12.78° C | 28% | 1008.8 hPa | - | - | 47 W/m² | - |
| 1777221323 | 13.89° C | 26% | 1008.8 hPa | - | - | 76 W/m² | - |
| 1777220421 | 13.89° C | 26% | 1008.9 hPa | - | - | 65 W/m² | - |
| 1777219520 | 13.89° C | 25% | 1009 hPa | - | - | 133 W/m² | - |
| 1777218619 | 15° C | 25% | 1009 hPa | - | - | 168 W/m² | - |
| 1777217718 | 15° C | 26% | 1008.8 hPa | - | - | 206 W/m² | - |
| 1777216817 | 14.44° C | 25% | 1008.9 hPa | - | - | 245 W/m² | - |
| 1777215916 | 13.89° C | 25% | 1008.8 hPa | - | - | 282 W/m² | - |
| 1777215015 | 14.44° C | 25% | 1008.7 hPa | - | - | 314 W/m² | - |
| 1777214114 | 14.44° C | 24% | 1008.8 hPa | - | - | 358 W/m² | - |
| 1777213214 | 15° C | 25% | 1008.8 hPa | - | - | 400 W/m² | - |
| 1777212312 | 15° C | 24% | 1008.6 hPa | - | - | 438 W/m² | - |
| 1777211411 | 14.44° C | 25% | 1008.7 hPa | - | - | 475 W/m² | - |
* Rain since midnight (hover to see other rain measurements)
** Current wind speed in m/s (hover to see current wind gust speed)